Strona główna
METAR-TAF:

METAR-TAF

Lotnisko :

Williamsport, Pensylwania, Stany Zjednoczone

Szerokość geograficzna: 41-14-30N, Długość geograficzna: 076-55-15W, wysokość: 161 m

Aktualna obserwacja pogody

Raport powstał 29 minut temu, godzina 00:54 UTC
Cisza
Temperatura 13°C
Wilgotność 54%
Ciśnienie 1016 hPa
Widzialność: 16.1 km
Rozproszone chmury na wysokości 4600 ft

METAR: KIPT 050054Z 00000KT 10SM SCT046 13/04 A3000 RMK AO2 SLP159 T01280044

czas: 21:23 (01:23 UTC)

Prognoza

Raport powstał 1 godzina i 57 minut temu, godzina 23:26 UTC
Prognoza ważna od 05 godzina 00 UTC do 05 godzina 24 UTC
Wiatr 6 kt od zachodnio-południowy zachód
Widzialność: 10 km
Przerywane chmury na wysokości 4000 ft
Przejściowo
od 05 godzina 14 UTC do 05 godzina 16 UTC
słaby przelotny opad deszczu
Od 05 godzina 2000 UTC
Wiatr 8 kt od zachodnio-północny zachód w porywach dochodzący do 15 kt
Widzialność: 10 km
Przerywane chmury na wysokości 4000 ft

TAF: KIPT 042326Z 0500/0524 25006KT P6SM BKN040 TEMPO 0514/0516 -SHRA FM052000 30008G15KT P6SM BKN040

Obserwacja i prognoza pogody dla ponad 4000 lotnisk (raport METAR i TAF).

Dostępne stacje oznaczono żółtymi i czerwonymi punktami na mapie.

Najedź kursorem aby zobaczyć nazwę stacji.

Kliknij aby zobaczyć obserwacje i prognozy pogody.

Aby zmienić mapę: kliknij na zielony przycisk z czarnym krzyżykiem, aby powiększyć; na zielony przycisk z myślnikiem, aby pomniejszyć; na zielone strzałki, aby przejść do map sąsiednich.


METAR-TAF: